createdAt,value
2018-04-29T00:01:53.022Z,10.27
2018-04-29T00:04:21.246Z,10.63
2018-04-29T00:06:49.494Z,11.17
2018-04-29T00:09:17.714Z,10.90
2018-04-29T00:11:46.054Z,9.53
2018-04-29T00:14:14.271Z,11.37
2018-04-29T00:16:42.714Z,11.70
2018-04-29T00:19:10.934Z,12.33
2018-04-29T00:21:39.264Z,9.87
2018-04-29T00:24:07.638Z,12.00
2018-04-29T00:26:35.882Z,11.70
2018-04-29T00:29:04.398Z,11.67
2018-04-29T00:31:32.663Z,10.40
2018-04-29T00:34:01.055Z,10.80
2018-04-29T00:36:29.458Z,10.03
2018-04-29T00:38:57.730Z,9.67
2018-04-29T00:41:25.966Z,10.40
2018-04-29T00:43:54.962Z,10.40
2018-04-29T00:46:23.977Z,10.27
2018-04-29T00:48:52.194Z,10.70
2018-04-29T00:54:20.819Z,11.60
2018-04-29T00:56:49.060Z,11.03
2018-04-29T00:59:17.283Z,9.73
2018-04-29T01:01:45.518Z,12.07
2018-04-29T01:04:13.958Z,10.13
2018-04-29T01:06:42.199Z,12.07
2018-04-29T01:09:10.423Z,10.13
2018-04-29T01:11:38.786Z,9.00
2018-04-29T01:14:07.059Z,9.70
2018-04-29T01:16:35.275Z,9.97
2018-04-29T01:19:03.512Z,10.07
2018-04-29T01:21:31.735Z,10.60
2018-04-29T01:23:59.974Z,10.30
2018-04-29T01:26:28.306Z,9.50
2018-04-29T01:28:56.699Z,9.97
2018-04-29T01:31:24.918Z,10.10
2018-04-29T01:33:53.167Z,9.47
2018-04-29T01:36:21.544Z,9.17
2018-04-29T01:38:49.939Z,7.63
2018-04-29T01:41:18.398Z,10.13
2018-04-29T01:43:46.636Z,9.67
2018-04-29T01:46:15.026Z,10.43
2018-04-29T01:48:43.551Z,9.83
2018-04-29T01:51:11.814Z,9.13
2018-04-29T01:53:40.051Z,8.70
2018-04-29T01:56:08.267Z,9.13
2018-04-29T01:58:36.502Z,10.60
2018-04-29T02:01:04.732Z,7.60
2018-04-29T02:03:33.079Z,9.13
2018-04-29T02:06:01.441Z,8.90
2018-04-29T02:08:29.670Z,8.40
2018-04-29T02:10:57.895Z,10.40
2018-04-29T02:13:26.291Z,9.70
2018-04-29T02:15:54.778Z,9.27
2018-04-29T02:18:23.012Z,8.63
2018-04-29T02:20:51.235Z,7.33
2018-04-29T02:23:19.466Z,9.33
2018-04-29T02:25:47.682Z,8.93
2018-04-29T02:28:15.971Z,8.97
2018-04-29T02:30:44.312Z,7.93
2018-04-29T02:33:12.539Z,8.33
2018-04-29T02:35:40.791Z,7.93
2018-04-29T02:38:09.265Z,9.20
2018-04-29T02:40:37.652Z,8.30
2018-04-29T02:43:05.881Z,8.43
2018-04-29T02:45:34.398Z,8.03
2018-04-29T02:48:02.674Z,8.80
2018-04-29T02:50:31.032Z,9.13
2018-04-29T02:52:59.459Z,8.70
2018-04-29T02:55:27.814Z,8.90
2018-04-29T02:57:56.031Z,8.67
2018-04-29T03:00:24.364Z,8.30
2018-04-29T03:02:52.583Z,7.57
2018-04-29T03:05:21.119Z,8.17
2018-04-29T03:07:49.371Z,11.13
2018-04-29T03:10:17.608Z,8.57
2018-04-29T03:12:45.855Z,7.90
2018-04-29T03:15:14.242Z,7.77
2018-04-29T03:17:42.674Z,7.37
2018-04-29T03:20:10.907Z,8.40
2018-04-29T03:22:39.123Z,7.30
2018-04-29T03:25:07.540Z,7.13
2018-04-29T03:27:35.819Z,9.10
2018-04-29T03:30:04.047Z,6.83
2018-04-29T03:32:32.263Z,7.93
2018-04-29T03:35:00.630Z,7.37
2018-04-29T03:37:28.850Z,8.50
2018-04-29T03:39:57.104Z,7.10
2018-04-29T03:42:25.327Z,7.50
2018-04-29T03:44:53.557Z,7.43
2018-04-29T03:47:21.889Z,7.27
2018-04-29T03:49:50.114Z,7.80
2018-04-29T03:52:18.460Z,6.40
2018-04-29T03:54:46.674Z,6.67
2018-04-29T03:57:26.614Z,7.87
2018-04-29T04:00:06.586Z,8.87
2018-04-29T04:02:46.706Z,8.13
2018-04-29T04:05:15.072Z,7.67
2018-04-29T04:07:43.308Z,7.10
2018-04-29T04:10:11.832Z,6.70
2018-04-29T04:12:40.075Z,7.20
2018-04-29T04:15:08.459Z,8.13
2018-04-29T04:17:36.846Z,5.63
2018-04-29T04:20:05.343Z,7.90
2018-04-29T04:22:33.611Z,6.83
2018-04-29T04:25:01.967Z,6.37
2018-04-29T04:27:30.399Z,7.33
2018-04-29T04:29:58.618Z,7.57
2018-04-29T04:32:26.854Z,6.60
2018-04-29T04:34:55.211Z,6.97
2018-04-29T04:37:23.452Z,7.37
2018-04-29T04:39:51.663Z,7.53
2018-04-29T04:42:19.878Z,8.00
2018-04-29T04:44:48.216Z,6.37
2018-04-29T04:47:16.584Z,7.37
2018-04-29T04:49:44.814Z,7.30
2018-04-29T04:52:13.826Z,6.83
2018-04-29T04:54:42.138Z,7.07
2018-04-29T04:57:10.358Z,6.37
2018-04-29T04:59:38.702Z,6.37
2018-04-29T05:02:07.167Z,6.43
2018-04-29T05:04:35.447Z,5.87
2018-04-29T05:07:03.665Z,7.13
2018-04-29T05:09:31.896Z,5.70
2018-04-29T05:12:00.275Z,6.50
2018-04-29T05:14:28.631Z,7.30
2018-04-29T05:16:57.023Z,7.47
2018-04-29T05:19:25.265Z,5.97
2018-04-29T05:21:53.479Z,6.83
2018-04-29T05:24:21.839Z,6.20
2018-04-29T05:26:50.056Z,6.33
2018-04-29T05:29:18.332Z,5.97
2018-04-29T05:31:46.651Z,7.07
2018-04-29T05:34:15.614Z,6.07
2018-04-29T05:36:43.754Z,7.37
2018-04-29T05:39:12.112Z,6.80
2018-04-29T05:41:40.471Z,7.73
2018-04-29T05:44:08.711Z,6.20
2018-04-29T05:46:37.056Z,6.37
2018-04-29T05:49:05.300Z,6.30
2018-04-29T05:51:33.735Z,7.27
2018-04-29T05:54:02.191Z,7.33
2018-04-29T05:56:30.562Z,6.87
2018-04-29T05:58:59.542Z,6.43
2018-04-29T06:01:28.547Z,6.47
2018-04-29T06:03:57.526Z,6.90
2018-04-29T06:06:26.571Z,5.93
2018-04-29T06:08:55.511Z,6.03
2018-04-29T06:11:24.506Z,6.13
2018-04-29T06:13:53.518Z,6.23
2018-04-29T06:16:21.751Z,5.93
2018-04-29T06:18:50.143Z,4.87
2018-04-29T06:21:18.659Z,5.00
2018-04-29T06:23:46.903Z,5.60
2018-04-29T06:26:15.239Z,5.37
2018-04-29T06:28:43.658Z,4.80
2018-04-29T06:31:12.170Z,5.47
2018-04-29T06:33:40.415Z,5.83
2018-04-29T06:36:08.807Z,7.00
2018-04-29T06:38:37.022Z,5.10
2018-04-29T06:41:05.375Z,6.20
2018-04-29T06:43:33.595Z,5.50
2018-04-29T06:46:02.015Z,5.90
2018-04-29T06:48:30.515Z,5.13
2018-04-29T06:50:58.755Z,5.07
2018-04-29T06:53:27.166Z,4.83
2018-04-29T06:55:55.364Z,4.90
2018-04-29T06:58:23.690Z,5.97
2018-04-29T07:00:52.766Z,5.03
2018-04-29T07:03:21.674Z,5.80
2018-04-29T07:05:49.893Z,5.03
2018-04-29T07:08:18.171Z,5.80
2018-04-29T07:10:46.538Z,5.97
2018-04-29T07:13:14.771Z,5.17
2018-04-29T07:15:43.295Z,5.27
2018-04-29T07:18:11.583Z,6.17
2018-04-29T07:20:40.052Z,5.57
2018-04-29T07:23:08.279Z,4.40
2018-04-29T07:25:36.676Z,5.13
2018-04-29T07:28:04.907Z,4.93
2018-04-29T07:30:33.256Z,5.70
2018-04-29T07:33:01.556Z,5.10
2018-04-29T07:35:29.774Z,4.97
2018-04-29T07:37:58.002Z,6.57
2018-04-29T07:40:26.323Z,4.60
2018-04-29T07:42:54.561Z,6.13
2018-04-29T07:45:22.811Z,4.73
2018-04-29T07:47:51.174Z,4.80
2018-04-29T07:50:19.391Z,5.27
2018-04-29T07:52:47.626Z,4.93
2018-04-29T07:55:16.014Z,4.57
2018-04-29T07:57:44.252Z,4.50
2018-04-29T08:00:12.466Z,4.90
2018-04-29T08:02:40.703Z,4.07
2018-04-29T08:05:09.010Z,5.67
2018-04-29T08:07:37.242Z,4.07
2018-04-29T08:10:05.635Z,5.10
2018-04-29T08:12:33.870Z,4.23
2018-04-29T08:15:02.095Z,4.67
2018-04-29T08:17:30.332Z,4.50
2018-04-29T08:19:58.571Z,5.30
2018-04-29T08:22:27.048Z,4.43
2018-04-29T08:24:55.192Z,5.00
2018-04-29T08:27:23.421Z,4.13
2018-04-29T08:29:51.635Z,4.37
2018-04-29T08:32:19.875Z,5.90
2018-04-29T08:34:48.227Z,4.87
2018-04-29T08:37:16.467Z,4.10
2018-04-29T08:39:44.683Z,5.13
2018-04-29T08:42:13.155Z,5.53
2018-04-29T08:44:41.398Z,4.20
2018-04-29T08:47:09.783Z,5.27
2018-04-29T08:49:38.182Z,4.63
2018-04-29T08:52:06.393Z,5.07
2018-04-29T08:54:34.663Z,4.80
2018-04-29T08:57:02.943Z,4.53
2018-04-29T08:59:31.174Z,4.70
2018-04-29T09:02:00.158Z,4.90
2018-04-29T09:04:29.167Z,4.50
2018-04-29T09:06:58.146Z,4.73
2018-04-29T09:09:27.147Z,4.13
2018-04-29T09:11:56.155Z,5.63
2018-04-29T09:14:24.389Z,4.77
2018-04-29T09:16:52.715Z,4.80
2018-04-29T09:19:20.983Z,4.43
2018-04-29T09:21:49.235Z,4.00
2018-04-29T09:24:17.739Z,5.17
2018-04-29T09:26:45.966Z,4.13
2018-04-29T09:29:14.190Z,4.77
2018-04-29T09:31:42.406Z,4.97
2018-04-29T09:34:10.752Z,4.63
2018-04-29T09:36:38.966Z,4.77
2018-04-29T09:39:07.285Z,4.80
2018-04-29T09:41:35.763Z,5.13
2018-04-29T09:44:04.754Z,5.17
2018-04-29T09:46:33.743Z,4.13
2018-04-29T09:49:02.740Z,4.80
2018-04-29T09:51:31.723Z,4.13
2018-04-29T09:54:00.730Z,4.80
2018-04-29T09:56:29.711Z,4.33
2018-04-29T09:58:58.712Z,4.67
2018-04-29T10:01:27.075Z,4.50
2018-04-29T10:03:55.307Z,4.97
2018-04-29T10:06:23.523Z,3.93
2018-04-29T10:08:51.811Z,4.37
2018-04-29T10:11:20.307Z,4.73
2018-04-29T10:13:48.686Z,3.90
2018-04-29T10:16:16.931Z,5.03
2018-04-29T10:18:45.193Z,4.53
2018-04-29T10:21:13.418Z,4.10
2018-04-29T10:23:41.893Z,3.97
2018-04-29T10:26:10.139Z,4.67
2018-04-29T10:28:38.535Z,4.37
2018-04-29T10:31:06.750Z,4.00
2018-04-29T10:33:34.986Z,4.10
2018-04-29T10:36:03.353Z,4.57
2018-04-29T10:38:31.858Z,4.70
2018-04-29T10:41:00.132Z,4.17
2018-04-29T10:43:28.315Z,6.00
2018-04-29T10:45:56.682Z,3.87
2018-04-29T10:48:24.898Z,4.53
2018-04-29T10:50:53.326Z,4.37
2018-04-29T10:53:21.687Z,5.87
2018-04-29T10:55:49.922Z,4.57
2018-04-29T10:58:18.143Z,4.87
2018-04-29T11:00:46.370Z,4.03
2018-04-29T11:03:14.591Z,4.50
2018-04-29T11:05:42.818Z,4.03
2018-04-29T11:08:11.042Z,3.80
2018-04-29T11:10:39.370Z,3.70
2018-04-29T11:13:07.587Z,4.23
2018-04-29T11:15:35.818Z,3.80
2018-04-29T11:18:04.039Z,4.10
2018-04-29T11:20:32.275Z,4.60
2018-04-29T11:23:00.490Z,3.57
2018-04-29T11:25:28.912Z,4.57
2018-04-29T11:27:57.115Z,4.40
2018-04-29T11:30:25.535Z,4.40
2018-04-29T11:32:53.898Z,4.63
2018-04-29T11:35:22.412Z,3.97
2018-04-29T11:37:50.630Z,3.83
2018-04-29T11:40:18.944Z,3.93
2018-04-29T11:42:47.239Z,3.50
2018-04-29T11:45:15.506Z,4.50
2018-04-29T11:47:43.867Z,4.33
2018-04-29T11:50:12.119Z,4.50
2018-04-29T11:52:40.335Z,3.30
2018-04-29T11:55:08.744Z,3.50
2018-04-29T11:57:36.958Z,4.43
2018-04-29T12:00:05.182Z,4.67
2018-04-29T12:02:33.405Z,3.60
2018-04-29T12:05:01.716Z,3.90
2018-04-29T12:07:30.702Z,4.47
2018-04-29T12:09:59.694Z,6.53
2018-04-29T12:12:28.702Z,4.37
2018-04-29T12:14:57.238Z,3.37
2018-04-29T12:17:26.222Z,3.73
2018-04-29T12:19:54.642Z,4.53
2018-04-29T12:22:23.002Z,4.50
2018-04-29T12:24:51.235Z,4.37
2018-04-29T12:27:19.587Z,4.00
2018-04-29T12:29:47.910Z,3.70
2018-04-29T12:32:16.126Z,3.60
2018-04-29T12:34:44.353Z,3.60
2018-04-29T12:37:12.596Z,3.97
2018-04-29T12:39:40.812Z,4.97
2018-04-29T12:42:09.245Z,3.97
2018-04-29T12:44:37.458Z,4.73
2018-04-29T12:47:05.691Z,4.30
2018-04-29T12:49:33.979Z,3.20
2018-04-29T12:52:02.210Z,3.33
2018-04-29T12:54:30.518Z,3.57
2018-04-29T12:56:58.759Z,3.47
2018-04-29T12:59:27.274Z,3.87
2018-04-29T13:01:55.539Z,3.77
2018-04-29T13:04:23.898Z,3.20
2018-04-29T13:06:52.131Z,3.20
2018-04-29T13:09:20.482Z,3.37
2018-04-29T13:11:48.863Z,4.00
2018-04-29T13:14:17.079Z,4.87
2018-04-29T13:16:45.315Z,4.40
2018-04-29T13:19:13.532Z,3.43
2018-04-29T13:21:42.076Z,3.37
2018-04-29T13:24:10.447Z,3.67
2018-04-29T13:26:38.715Z,3.97
2018-04-29T13:29:06.931Z,4.50
2018-04-29T13:31:35.158Z,4.00
2018-04-29T13:34:03.571Z,3.50
2018-04-29T13:36:31.799Z,3.70
2018-04-29T13:39:00.024Z,3.77
2018-04-29T13:41:28.257Z,3.33
2018-04-29T13:43:56.555Z,3.03
2018-04-29T13:46:24.796Z,3.70
2018-04-29T13:48:53.183Z,3.10
2018-04-29T13:51:21.417Z,3.40
2018-04-29T13:53:49.632Z,3.00
2018-04-29T13:56:17.867Z,4.00
2018-04-29T13:58:46.220Z,3.97
2018-04-29T14:01:15.194Z,3.23
2018-04-29T14:03:44.381Z,3.27
2018-04-29T14:06:12.612Z,3.87
2018-04-29T14:08:40.891Z,3.47
2018-04-29T14:11:09.123Z,3.10
2018-04-29T14:13:37.515Z,3.17
2018-04-29T14:16:05.795Z,2.80
2018-04-29T14:18:34.135Z,3.57
2018-04-29T14:21:03.150Z,4.63
2018-04-29T14:23:32.120Z,3.53
2018-04-29T14:26:01.103Z,3.57
2018-04-29T14:28:29.320Z,3.40
2018-04-29T14:30:57.550Z,3.10
2018-04-29T14:33:25.781Z,3.83
2018-04-29T14:35:54.003Z,3.30
2018-04-29T14:38:22.225Z,3.10
2018-04-29T14:40:52.130Z,3.13
2018-04-29T14:43:20.489Z,2.67
2018-04-29T14:45:48.864Z,2.93
2018-04-29T14:48:17.859Z,3.83
2018-04-29T14:50:46.843Z,3.00
2018-04-29T14:53:15.842Z,3.13
2018-04-29T14:55:44.826Z,2.53
2018-04-29T14:58:13.827Z,3.10
2018-04-29T15:00:42.839Z,3.03
2018-04-29T15:03:11.072Z,3.53
2018-04-29T15:05:40.848Z,3.17
2018-04-29T15:08:09.087Z,3.07
2018-04-29T15:10:37.308Z,3.03
2018-04-29T15:13:05.540Z,2.90
2018-04-29T15:15:33.763Z,3.40
2018-04-29T15:18:02.147Z,2.60
2018-04-29T15:20:30.577Z,2.97
2018-04-29T15:22:58.868Z,3.60
2018-04-29T15:25:27.145Z,3.17
2018-04-29T15:27:55.370Z,3.10
2018-04-29T15:30:23.593Z,3.10
2018-04-29T15:32:51.827Z,2.90
2018-04-29T15:35:20.047Z,3.20
2018-04-29T15:37:48.278Z,3.00
2018-04-29T15:40:16.494Z,3.23
2018-04-29T15:42:44.732Z,3.50
2018-04-29T15:45:12.951Z,2.90
2018-04-29T15:47:41.183Z,2.93
2018-04-29T15:50:09.402Z,3.20
2018-04-29T15:52:37.631Z,3.07
2018-04-29T15:55:05.935Z,2.87
2018-04-29T15:57:34.171Z,3.03
2018-04-29T16:00:02.386Z,2.90
2018-04-29T16:02:30.621Z,3.10
2018-04-29T16:04:58.839Z,2.70
2018-04-29T16:07:27.099Z,2.97
2018-04-29T16:09:55.314Z,2.80
2018-04-29T16:12:23.583Z,3.87
2018-04-29T16:14:51.915Z,2.57
2018-04-29T16:17:20.162Z,2.90
2018-04-29T16:19:48.390Z,3.17
2018-04-29T16:22:16.606Z,3.00
2018-04-29T16:24:44.868Z,2.83
2018-04-29T16:27:13.124Z,2.80
2018-04-29T16:29:41.355Z,2.87
2018-04-29T16:32:09.570Z,2.77
2018-04-29T16:34:37.803Z,3.07
2018-04-29T16:37:06.798Z,3.03
2018-04-29T16:39:35.030Z,2.47
2018-04-29T16:42:03.246Z,2.80
2018-04-29T16:44:31.491Z,3.10
2018-04-29T16:46:59.706Z,2.40
2018-04-29T16:49:27.994Z,2.40
2018-04-29T16:51:56.494Z,2.50
2018-04-29T16:54:24.763Z,2.77
2018-04-29T16:56:52.976Z,3.00
2018-04-29T16:59:21.211Z,2.60
2018-04-29T17:01:49.571Z,3.00
2018-04-29T17:04:17.813Z,2.50
2018-04-29T17:06:46.023Z,2.50
2018-04-29T17:09:14.454Z,2.70
2018-04-29T17:11:42.808Z,2.30
2018-04-29T17:14:11.036Z,3.23
2018-04-29T17:16:39.268Z,2.90
2018-04-29T17:19:07.502Z,2.27
2018-04-29T17:21:35.791Z,2.77
2018-04-29T17:24:04.792Z,2.60
2018-04-29T17:26:33.770Z,2.27
2018-04-29T17:29:02.820Z,2.67
2018-04-29T17:31:31.335Z,2.70
2018-04-29T17:33:59.764Z,2.47
2018-04-29T17:36:28.132Z,2.53
2018-04-29T17:38:56.527Z,2.50
2018-04-29T17:41:24.743Z,2.57
2018-04-29T17:43:52.981Z,2.80
2018-04-29T17:46:21.301Z,3.03
2018-04-29T17:48:49.530Z,2.47
2018-04-29T17:51:17.751Z,2.60
2018-04-29T17:53:45.988Z,2.87
2018-04-29T17:56:14.297Z,2.70
2018-04-29T17:58:42.590Z,2.40
2018-04-29T18:01:10.806Z,2.50
2018-04-29T18:03:39.038Z,2.63
2018-04-29T18:06:07.263Z,2.87
2018-04-29T18:08:40.526Z,2.77
2018-04-29T18:11:08.743Z,2.87
2018-04-29T18:13:37.141Z,2.40
2018-04-29T18:16:05.423Z,2.60
2018-04-29T18:18:33.649Z,3.97
2018-04-29T18:21:02.115Z,2.30
2018-04-29T18:23:30.334Z,2.70
2018-04-29T18:25:58.745Z,2.60
2018-04-29T18:28:27.152Z,2.73
2018-04-29T18:30:55.622Z,2.70
2018-04-29T18:33:23.839Z,2.60
2018-04-29T18:35:52.075Z,3.47
2018-04-29T18:38:20.451Z,2.47
2018-04-29T18:40:48.719Z,2.40
2018-04-29T18:43:16.933Z,2.53
2018-04-29T18:45:45.163Z,2.87
2018-04-29T18:48:13.522Z,3.20
2018-04-29T18:50:41.983Z,2.27
2018-04-29T18:53:09.978Z,2.80
2018-04-29T18:55:38.207Z,2.23
2018-04-29T18:58:06.419Z,3.00
2018-04-29T19:00:34.939Z,2.43
2018-04-29T19:03:03.179Z,2.37
2018-04-29T19:05:43.119Z,1.90
2018-04-29T19:08:11.337Z,2.70
2018-04-29T19:10:39.676Z,2.50
2018-04-29T19:13:07.887Z,2.70
2018-04-29T19:15:36.118Z,2.57
2018-04-29T19:18:04.335Z,2.70
2018-04-29T19:20:32.571Z,2.47
2018-04-29T19:23:00.791Z,2.40
2018-04-29T19:25:29.110Z,2.67
2018-04-29T19:27:57.411Z,2.90
2018-04-29T19:30:25.646Z,2.73
2018-04-29T19:32:53.864Z,2.70
2018-04-29T19:35:22.096Z,2.30
2018-04-29T19:37:50.312Z,2.30
2018-04-29T19:40:18.543Z,2.80
2018-04-29T19:42:46.755Z,2.73
2018-04-29T19:45:15.163Z,2.40
2018-04-29T19:47:43.374Z,2.50
2018-04-29T19:50:11.639Z,2.63
2018-04-29T19:52:40.092Z,2.83
2018-04-29T19:55:08.256Z,2.33
2018-04-29T19:57:37.338Z,2.20
2018-04-29T20:00:05.847Z,2.40
2018-04-29T20:02:34.227Z,2.20
2018-04-29T20:05:02.491Z,2.90
2018-04-29T20:07:30.883Z,3.63
2018-04-29T20:09:59.139Z,2.67
2018-04-29T20:12:27.358Z,2.50
2018-04-29T20:14:55.683Z,2.53
2018-04-29T20:17:23.924Z,2.40
2018-04-29T20:19:52.132Z,2.53
2018-04-29T20:22:20.363Z,3.37
2018-04-29T20:24:48.579Z,2.80
2018-04-29T20:27:17.090Z,2.33
2018-04-29T20:29:45.319Z,3.00
2018-04-29T20:32:15.690Z,2.60
2018-04-29T20:34:43.936Z,2.80
2018-04-29T20:37:12.268Z,2.47
2018-04-29T20:39:40.483Z,2.30
2018-04-29T20:42:08.798Z,2.60
2018-04-29T20:44:37.278Z,2.53
2018-04-29T20:47:05.544Z,2.67
2018-04-29T20:49:33.759Z,2.63
2018-04-29T20:52:01.995Z,2.50
2018-04-29T20:54:30.210Z,2.40
2018-04-29T20:56:58.442Z,2.30
2018-04-29T20:59:26.662Z,2.57
2018-04-29T21:01:54.987Z,2.70
2018-04-29T21:04:23.250Z,2.43
2018-04-29T21:06:51.493Z,2.20
2018-04-29T21:09:19.702Z,2.93
2018-04-29T21:11:48.126Z,2.53
2018-04-29T21:14:16.339Z,2.77
2018-04-29T21:16:44.575Z,2.50
2018-04-29T21:19:12.795Z,2.63
2018-04-29T21:21:41.031Z,2.57
2018-04-29T21:24:09.247Z,3.03
2018-04-29T21:26:37.482Z,2.40
2018-04-29T21:29:05.703Z,2.70
2018-04-29T21:31:34.702Z,2.60
2018-04-29T21:34:02.919Z,2.30
2018-04-29T21:36:31.150Z,2.53
2018-04-29T21:38:59.372Z,2.87
2018-04-29T21:41:27.598Z,3.00
2018-04-29T21:43:55.908Z,2.40
2018-04-29T21:46:24.292Z,2.47
2018-04-29T21:48:52.559Z,2.23
2018-04-29T21:51:20.791Z,2.37
2018-04-29T21:53:49.006Z,2.90
2018-04-29T21:56:17.376Z,2.10
2018-04-29T21:58:45.739Z,2.27
2018-04-29T22:01:13.955Z,2.50
2018-04-29T22:03:42.315Z,2.60
2018-04-29T22:06:10.537Z,3.47
2018-04-29T22:08:38.778Z,2.47
2018-04-29T22:11:06.994Z,3.23
2018-04-29T22:13:35.995Z,2.70
2018-04-29T22:16:04.211Z,2.50
2018-04-29T22:18:32.586Z,2.70
2018-04-29T22:21:00.803Z,2.37
2018-04-29T22:23:29.040Z,2.53
2018-04-29T22:25:57.326Z,2.90
2018-04-29T22:28:25.559Z,2.53
2018-04-29T22:30:53.774Z,2.67
2018-04-29T22:33:22.007Z,2.50
2018-04-29T22:35:50.310Z,2.40
2018-04-29T22:38:18.583Z,2.60
2018-04-29T22:40:46.911Z,2.63
2018-04-29T22:43:15.146Z,2.60
2018-04-29T22:45:43.422Z,2.90
2018-04-29T22:48:11.660Z,2.50
2018-04-29T22:50:39.878Z,2.40
2018-04-29T22:53:08.231Z,2.60
2018-04-29T22:55:36.631Z,2.50
2018-04-29T22:58:04.864Z,2.93
2018-04-29T23:00:33.853Z,2.50
2018-04-29T23:03:02.086Z,2.30
2018-04-29T23:05:30.303Z,2.60
2018-04-29T23:07:58.544Z,2.73
2018-04-29T23:10:26.817Z,2.40
2018-04-29T23:12:54.992Z,3.63
2018-04-29T23:15:23.455Z,2.50
2018-04-29T23:17:51.686Z,3.30
2018-04-29T23:20:19.903Z,2.50
2018-04-29T23:22:48.228Z,2.70
2018-04-29T23:25:16.438Z,2.40
2018-04-29T23:27:44.674Z,2.37
2018-04-29T23:30:13.083Z,3.03
2018-04-29T23:32:42.098Z,3.00
2018-04-29T23:35:10.319Z,2.60
2018-04-29T23:37:38.554Z,2.60
2018-04-29T23:40:06.928Z,2.50
2018-04-29T23:42:35.154Z,2.53
2018-04-29T23:45:04.135Z,2.47
2018-04-29T23:47:32.431Z,2.30
2018-04-29T23:50:00.588Z,2.40
2018-04-29T23:52:28.815Z,2.57
2018-04-29T23:54:57.116Z,2.43
2018-04-29T23:57:25.347Z,2.50
2018-04-29T23:59:53.579Z,2.40
